sensor_id;sensor_type;location;lat;lon;timestamp;pressure;altitude;pressure_sealevel;temperature;humidity
56671;BME280;42545;50.054;8.306;2023-01-28T00:00:19;100837.50;;;1.57;96.87
56671;BME280;42545;50.054;8.306;2023-01-28T00:02:46;100841.66;;;1.55;97.22
56671;BME280;42545;50.054;8.306;2023-01-28T00:05:15;100841.59;;;1.53;97.64
56671;BME280;42545;50.054;8.306;2023-01-28T00:07:42;100837.88;;;1.50;97.18
56671;BME280;42545;50.054;8.306;2023-01-28T00:10:09;100832.47;;;1.47;97.56
56671;BME280;42545;50.054;8.306;2023-01-28T00:12:36;100843.47;;;1.43;97.16
56671;BME280;42545;50.054;8.306;2023-01-28T00:15:04;100833.66;;;1.39;97.76
56671;BME280;42545;50.054;8.306;2023-01-28T00:17:32;100838.69;;;1.36;98.37
56671;BME280;42545;50.054;8.306;2023-01-28T00:20:01;100838.56;;;1.34;98.53
56671;BME280;42545;50.054;8.306;2023-01-28T00:22:28;100833.97;;;1.30;98.46
56671;BME280;42545;50.054;8.306;2023-01-28T00:24:54;100840.78;;;1.28;98.16
56671;BME280;42545;50.054;8.306;2023-01-28T00:27:21;100836.38;;;1.27;98.72
56671;BME280;42545;50.054;8.306;2023-01-28T00:29:49;100840.69;;;1.26;98.41
56671;BME280;42545;50.054;8.306;2023-01-28T00:32:15;100844.78;;;1.23;98.50
56671;BME280;42545;50.054;8.306;2023-01-28T00:34:44;100845.44;;;1.20;98.18
56671;BME280;42545;50.054;8.306;2023-01-28T00:37:11;100847.16;;;1.20;98.76
56671;BME280;42545;50.054;8.306;2023-01-28T00:39:37;100845.16;;;1.15;98.50
56671;BME280;42545;50.054;8.306;2023-01-28T00:42:04;100842.44;;;1.14;99.31
56671;BME280;42545;50.054;8.306;2023-01-28T00:44:30;100844.72;;;1.09;99.01
56671;BME280;42545;50.054;8.306;2023-01-28T00:47:00;100849.03;;;1.09;98.85
56671;BME280;42545;50.054;8.306;2023-01-28T00:49:27;100855.72;;;1.05;98.80
56671;BME280;42545;50.054;8.306;2023-01-28T00:51:57;100859.94;;;1.03;98.68
56671;BME280;42545;50.054;8.306;2023-01-28T00:54:23;100852.84;;;1.01;99.48
56671;BME280;42545;50.054;8.306;2023-01-28T00:56:50;100848.31;;;0.98;99.13
56671;BME280;42545;50.054;8.306;2023-01-28T00:59:17;100855.22;;;0.98;99.30
56671;BME280;42545;50.054;8.306;2023-01-28T01:01:44;100858.53;;;0.95;99.14
56671;BME280;42545;50.054;8.306;2023-01-28T01:04:11;100857.59;;;0.94;99.77
56671;BME280;42545;50.054;8.306;2023-01-28T01:06:38;100848.91;;;0.94;99.45
56671;BME280;42545;50.054;8.306;2023-01-28T01:09:10;100849.91;;;0.96;99.44
56671;BME280;42545;50.054;8.306;2023-01-28T01:11:36;100850.72;;;0.95;99.97
56671;BME280;42545;50.054;8.306;2023-01-28T01:14:03;100857.03;;;0.99;99.63
56671;BME280;42545;50.054;8.306;2023-01-28T01:16:31;100851.91;;;1.00;99.39
56671;BME280;42545;50.054;8.306;2023-01-28T01:19:00;100845.03;;;1.01;98.95
56671;BME280;42545;50.054;8.306;2023-01-28T01:21:28;100847.72;;;1.02;99.23
56671;BME280;42545;50.054;8.306;2023-01-28T01:23:55;100852.13;;;1.03;98.84
56671;BME280;42545;50.054;8.306;2023-01-28T01:26:23;100853.13;;;1.05;98.65
56671;BME280;42545;50.054;8.306;2023-01-28T01:28:52;100858.31;;;1.05;98.72
56671;BME280;42545;50.054;8.306;2023-01-28T01:31:20;100853.03;;;1.04;98.08
56671;BME280;42545;50.054;8.306;2023-01-28T01:33:48;100855.72;;;1.05;98.10
56671;BME280;42545;50.054;8.306;2023-01-28T01:36:16;100865.13;;;1.03;97.65
56671;BME280;42545;50.054;8.306;2023-01-28T01:38:44;100859.94;;;1.03;97.71
56671;BME280;42545;50.054;8.306;2023-01-28T01:41:21;100872.03;;;1.03;98.10
56671;BME280;42545;50.054;8.306;2023-01-28T01:43:52;100873.69;;;1.02;98.09
56671;BME280;42545;50.054;8.306;2023-01-28T01:46:22;100877.13;;;1.01;97.52
56671;BME280;42545;50.054;8.306;2023-01-28T01:48:52;100870.22;;;1.02;97.98
56671;BME280;42545;50.054;8.306;2023-01-28T01:51:23;100873.63;;;1.01;98.21
56671;BME280;42545;50.054;8.306;2023-01-28T01:53:53;100880.59;;;1.02;98.12
56671;BME280;42545;50.054;8.306;2023-01-28T01:56:24;100875.22;;;0.99;98.20
56671;BME280;42545;50.054;8.306;2023-01-28T01:58:56;100887.50;;;1.01;98.36
56671;BME280;42545;50.054;8.306;2023-01-28T02:01:27;100883.91;;;0.99;98.01
56671;BME280;42545;50.054;8.306;2023-01-28T02:04:00;100895.31;;;1.01;98.10
56671;BME280;42545;50.054;8.306;2023-01-28T02:06:30;100882.31;;;1.01;98.26
56671;BME280;42545;50.054;8.306;2023-01-28T02:08:57;100881.22;;;0.98;98.53
56671;BME280;42545;50.054;8.306;2023-01-28T02:11:26;100886.50;;;0.99;97.82
56671;BME280;42545;50.054;8.306;2023-01-28T02:14:00;100884.81;;;1.00;98.12
56671;BME280;42545;50.054;8.306;2023-01-28T02:16:30;100889.09;;;0.99;97.87
56671;BME280;42545;50.054;8.306;2023-01-28T02:18:57;100882.09;;;0.98;98.10
56671;BME280;42545;50.054;8.306;2023-01-28T02:21:39;100883.81;;;0.98;98.37
56671;BME280;42545;50.054;8.306;2023-01-28T02:24:18;100882.81;;;0.95;98.16
56671;BME280;42545;50.054;8.306;2023-01-28T02:26:55;100890.72;;;0.97;98.33
56671;BME280;42545;50.054;8.306;2023-01-28T02:29:29;100890.72;;;0.97;98.18
56671;BME280;42545;50.054;8.306;2023-01-28T02:32:04;100894.19;;;0.98;98.44
56671;BME280;42545;50.054;8.306;2023-01-28T02:34:37;100888.91;;;0.96;98.62
56671;BME280;42545;50.054;8.306;2023-01-28T02:37:11;100895.91;;;0.97;98.37
56671;BME280;42545;50.054;8.306;2023-01-28T02:39:43;100897.50;;;0.95;97.80
56671;BME280;42545;50.054;8.306;2023-01-28T02:42:14;100891.50;;;0.96;98.45
56671;BME280;42545;50.054;8.306;2023-01-28T02:44:45;100891.50;;;0.96;98.21
56671;BME280;42545;50.054;8.306;2023-01-28T02:47:12;100894.97;;;0.96;98.46
56671;BME280;42545;50.054;8.306;2023-01-28T02:49:58;100896.81;;;0.98;97.75
56671;BME280;42545;50.054;8.306;2023-01-28T02:52:39;100892.50;;;0.98;97.46
56671;BME280;42545;50.054;8.306;2023-01-28T02:55:34;100890.91;;;1.00;97.07
56671;BME280;42545;50.054;8.306;2023-01-28T02:58:13;100891.00;;;1.02;96.93
56671;BME280;42545;50.054;8.306;2023-01-28T03:00:49;100894.59;;;1.04;96.15
56671;BME280;42545;50.054;8.306;2023-01-28T03:03:24;100896.53;;;1.06;96.30
56671;BME280;42545;50.054;8.306;2023-01-28T03:05:54;100900.13;;;1.08;95.86
56671;BME280;42545;50.054;8.306;2023-01-28T03:08:34;100899.31;;;1.09;95.57
56671;BME280;42545;50.054;8.306;2023-01-28T03:11:19;100902.84;;;1.10;95.46
56671;BME280;42545;50.054;8.306;2023-01-28T03:14:05;100895.81;;;1.09;95.62
56671;BME280;42545;50.054;8.306;2023-01-28T03:16:52;100905.53;;;1.11;95.11
56671;BME280;42545;50.054;8.306;2023-01-28T03:19:37;100906.31;;;1.10;95.38
56671;BME280;42545;50.054;8.306;2023-01-28T03:22:23;100899.13;;;1.06;94.56
56671;BME280;42545;50.054;8.306;2023-01-28T03:25:10;100916.94;;;1.13;94.58
56671;BME280;42545;50.054;8.306;2023-01-28T03:27:59;100916.13;;;1.14;94.18
56671;BME280;42545;50.054;8.306;2023-01-28T03:30:47;100914.44;;;1.15;94.53
56671;BME280;42545;50.054;8.306;2023-01-28T03:33:34;100915.13;;;1.12;94.33
56671;BME280;42545;50.054;8.306;2023-01-28T03:36:20;100920.44;;;1.14;94.41
56671;BME280;42545;50.054;8.306;2023-01-28T03:39:04;100931.63;;;1.13;93.59
56671;BME280;42545;50.054;8.306;2023-01-28T03:41:30;100919.44;;;1.12;93.63
56671;BME280;42545;50.054;8.306;2023-01-28T03:43:57;100924.63;;;1.12;94.03
56671;BME280;42545;50.054;8.306;2023-01-28T03:46:41;100939.41;;;1.13;93.46
56671;BME280;42545;50.054;8.306;2023-01-28T03:49:09;100934.91;;;1.10;93.86
56671;BME280;42545;50.054;8.306;2023-01-28T03:51:36;100943.81;;;1.14;93.37
56671;BME280;42545;50.054;8.306;2023-01-28T03:54:02;100932.53;;;1.13;93.16
56671;BME280;42545;50.054;8.306;2023-01-28T03:56:30;100935.13;;;1.13;93.45
56671;BME280;42545;50.054;8.306;2023-01-28T03:59:01;100936.03;;;1.14;94.15
56671;BME280;42545;50.054;8.306;2023-01-28T04:01:28;100939.41;;;1.13;94.23
56671;BME280;42545;50.054;8.306;2023-01-28T04:03:55;100934.03;;;1.10;94.01
56671;BME280;42545;50.054;8.306;2023-01-28T04:06:23;100939.34;;;1.11;94.00
56671;BME280;42545;50.054;8.306;2023-01-28T04:08:49;100937.63;;;1.12;93.71
56671;BME280;42545;50.054;8.306;2023-01-28T04:11:23;100937.63;;;1.12;92.59
56671;BME280;42545;50.054;8.306;2023-01-28T04:13:51;100933.31;;;1.12;92.80
56671;BME280;42545;50.054;8.306;2023-01-28T04:16:18;100929.00;;;1.13;92.87
56671;BME280;42545;50.054;8.306;2023-01-28T04:18:46;100937.75;;;1.13;92.30
56671;BME280;42545;50.054;8.306;2023-01-28T04:21:13;100935.25;;;1.15;92.58
56671;BME280;42545;50.054;8.306;2023-01-28T04:23:41;100950.03;;;1.16;91.86
56671;BME280;42545;50.054;8.306;2023-01-28T04:26:08;100944.72;;;1.14;92.03
56671;BME280;42545;50.054;8.306;2023-01-28T04:28:34;100949.13;;;1.15;92.04
56671;BME280;42545;50.054;8.306;2023-01-28T04:31:01;100948.31;;;1.17;91.73
56671;BME280;42545;50.054;8.306;2023-01-28T04:33:27;100949.13;;;1.15;92.17
56671;BME280;42545;50.054;8.306;2023-01-28T04:35:54;100939.22;;;1.10;91.16
56671;BME280;42545;50.054;8.306;2023-01-28T04:38:21;100954.34;;;1.15;91.40
56671;BME280;42545;50.054;8.306;2023-01-28T04:40:51;100952.63;;;1.16;90.51
56671;BME280;42545;50.054;8.306;2023-01-28T04:43:18;100948.31;;;1.17;91.25
56671;BME280;42545;50.054;8.306;2023-01-28T04:45:45;100948.31;;;1.17;91.00
56671;BME280;42545;50.054;8.306;2023-01-28T04:48:14;100948.31;;;1.17;90.54
56671;BME280;42545;50.054;8.306;2023-01-28T04:50:41;100946.66;;;1.17;91.27
56671;BME280;42545;50.054;8.306;2023-01-28T04:53:08;100944.84;;;1.16;91.18
56671;BME280;42545;50.054;8.306;2023-01-28T04:55:35;100941.22;;;1.14;91.46
56671;BME280;42545;50.054;8.306;2023-01-28T04:58:03;100944.53;;;1.11;90.89
56671;BME280;42545;50.054;8.306;2023-01-28T05:00:31;100947.03;;;1.10;90.24
56671;BME280;42545;50.054;8.306;2023-01-28T05:02:58;100951.22;;;1.08;89.94
56671;BME280;42545;50.054;8.306;2023-01-28T05:05:24;100946.81;;;1.07;89.89
56671;BME280;42545;50.054;8.306;2023-01-28T05:07:51;100941.50;;;1.05;89.11
56671;BME280;42545;50.054;8.306;2023-01-28T05:10:18;100954.50;;;1.05;89.16
56671;BME280;42545;50.054;8.306;2023-01-28T05:12:46;100956.19;;;1.05;89.48
56671;BME280;42545;50.054;8.306;2023-01-28T05:15:14;100957.97;;;1.06;88.89
56671;BME280;42545;50.054;8.306;2023-01-28T05:17:42;100957.91;;;1.04;88.98
56671;BME280;42545;50.054;8.306;2023-01-28T05:20:12;100956.97;;;1.04;88.82
56671;BME280;42545;50.054;8.306;2023-01-28T05:22:40;100961.41;;;1.05;89.92
56671;BME280;42545;50.054;8.306;2023-01-28T05:25:08;100959.69;;;1.05;89.19
56671;BME280;42545;50.054;8.306;2023-01-28T05:27:35;100963.78;;;1.02;88.96
56671;BME280;42545;50.054;8.306;2023-01-28T05:30:01;100956.88;;;1.02;89.57
56671;BME280;42545;50.054;8.306;2023-01-28T05:32:30;100964.78;;;1.04;89.51
56671;BME280;42545;50.054;8.306;2023-01-28T05:34:57;100969.97;;;1.04;89.43
56671;BME280;42545;50.054;8.306;2023-01-28T05:37:23;100979.59;;;1.05;88.82
56671;BME280;42545;50.054;8.306;2023-01-28T05:39:50;100982.97;;;1.04;88.85
56671;BME280;42545;50.054;8.306;2023-01-28T05:42:17;100981.19;;;1.03;89.12
56671;BME280;42545;50.054;8.306;2023-01-28T05:44:45;100976.09;;;1.04;88.80
56671;BME280;42545;50.054;8.306;2023-01-28T05:47:11;100983.97;;;1.06;88.83
56671;BME280;42545;50.054;8.306;2023-01-28T05:49:40;100990.09;;;1.06;88.55
56671;BME280;42545;50.054;8.306;2023-01-28T05:52:06;100983.06;;;1.05;89.30
56671;BME280;42545;50.054;8.306;2023-01-28T05:54:33;100989.09;;;1.04;89.30
56671;BME280;42545;50.054;8.306;2023-01-28T05:57:00;100984.78;;;1.05;88.84
56671;BME280;42545;50.054;8.306;2023-01-28T05:59:26;100993.47;;;1.05;89.02
56671;BME280;42545;50.054;8.306;2023-01-28T06:01:53;101001.38;;;1.07;89.18
56671;BME280;42545;50.054;8.306;2023-01-28T06:04:20;100996.88;;;1.04;89.09
56671;BME280;42545;50.054;8.306;2023-01-28T06:06:48;100991.00;;;1.07;88.36
56671;BME280;42545;50.054;8.306;2023-01-28T06:09:14;101004.88;;;1.07;88.88
56671;BME280;42545;50.054;8.306;2023-01-28T06:11:41;100989.16;;;1.06;88.61
56671;BME280;42545;50.054;8.306;2023-01-28T06:14:08;100991.88;;;1.07;88.97
56671;BME280;42545;50.054;8.306;2023-01-28T06:16:35;101002.28;;;1.07;88.86
56671;BME280;42545;50.054;8.306;2023-01-28T06:19:02;100998.78;;;1.07;89.55
56671;BME280;42545;50.054;8.306;2023-01-28T06:21:29;100999.69;;;1.07;89.24
56671;BME280;42545;50.054;8.306;2023-01-28T06:23:57;100999.47;;;1.04;89.37
56671;BME280;42545;50.054;8.306;2023-01-28T06:26:24;101002.66;;;1.00;89.55
56671;BME280;42545;50.054;8.306;2023-01-28T06:28:50;101015.88;;;1.03;90.12
56671;BME280;42545;50.054;8.306;2023-01-28T06:31:19;101014.16;;;1.04;90.38
56671;BME280;42545;50.054;8.306;2023-01-28T06:33:45;101018.47;;;1.03;90.84
56671;BME280;42545;50.054;8.306;2023-01-28T06:36:12;101007.53;;;0.95;91.43
56671;BME280;42545;50.054;8.306;2023-01-28T06:38:38;101022.66;;;1.01;91.95
56671;BME280;42545;50.054;8.306;2023-01-28T06:41:07;101022.53;;;1.00;92.29
56671;BME280;42545;50.054;8.306;2023-01-28T06:43:34;101027.50;;;0.96;92.72
56671;BME280;42545;50.054;8.306;2023-01-28T06:46:00;101031.69;;;0.94;93.15
56671;BME280;42545;50.054;8.306;2023-01-28T06:48:28;101012.97;;;0.87;93.64
56671;BME280;42545;50.054;8.306;2023-01-28T06:50:55;101029.69;;;0.90;93.52
56671;BME280;42545;50.054;8.306;2023-01-28T06:53:22;101034.78;;;0.89;93.71
56671;BME280;42545;50.054;8.306;2023-01-28T06:55:48;101032.88;;;0.86;94.21
56671;BME280;42545;50.054;8.306;2023-01-28T06:58:17;101035.34;;;0.85;94.84
56671;BME280;42545;50.054;8.306;2023-01-28T07:00:43;101031.88;;;0.84;95.02
56671;BME280;42545;50.054;8.306;2023-01-28T07:03:11;101029.03;;;0.81;94.55
56671;BME280;42545;50.054;8.306;2023-01-28T07:05:38;101042.16;;;0.83;95.40
56671;BME280;42545;50.054;8.306;2023-01-28T07:08:04;101044.63;;;0.81;95.45
56671;BME280;42545;50.054;8.306;2023-01-28T07:10:31;101039.31;;;0.80;95.65
56671;BME280;42545;50.054;8.306;2023-01-28T07:12:58;101052.44;;;0.81;95.82
56671;BME280;42545;50.054;8.306;2023-01-28T07:15:27;101042.81;;;0.80;95.73
56671;BME280;42545;50.054;8.306;2023-01-28T07:17:54;101049.81;;;0.81;95.68
56671;BME280;42545;50.054;8.306;2023-01-28T07:20:20;101055.91;;;0.82;95.72
56671;BME280;42545;50.054;8.306;2023-01-28T07:22:48;101055.91;;;0.82;95.54
56671;BME280;42545;50.054;8.306;2023-01-28T07:25:15;101055.03;;;0.81;96.21
56671;BME280;42545;50.054;8.306;2023-01-28T07:27:48;101055.91;;;0.82;95.72
56671;BME280;42545;50.054;8.306;2023-01-28T07:30:16;101064.63;;;0.82;96.07
56671;BME280;42545;50.054;8.306;2023-01-28T07:32:45;101065.31;;;0.80;96.11
56671;BME280;42545;50.054;8.306;2023-01-28T07:35:12;101057.63;;;0.81;96.05
56671;BME280;42545;50.054;8.306;2023-01-28T07:37:40;101062.81;;;0.81;95.37
56671;BME280;42545;50.054;8.306;2023-01-28T07:40:07;101062.69;;;0.80;95.01
56671;BME280;42545;50.054;8.306;2023-01-28T07:42:34;101063.59;;;0.80;95.24
56671;BME280;42545;50.054;8.306;2023-01-28T07:45:01;101067.00;;;0.79;94.71
56671;BME280;42545;50.054;8.306;2023-01-28T07:47:31;101070.59;;;0.81;95.02
56671;BME280;42545;50.054;8.306;2023-01-28T07:50:00;101075.81;;;0.81;94.93
56671;BME280;42545;50.054;8.306;2023-01-28T07:52:27;101075.91;;;0.83;94.84
56671;BME280;42545;50.054;8.306;2023-01-28T07:54:55;101073.31;;;0.83;94.60
56671;BME280;42545;50.054;8.306;2023-01-28T07:57:23;101070.72;;;0.83;93.87
56671;BME280;42545;50.054;8.306;2023-01-28T07:59:50;101079.28;;;0.82;94.12
56671;BME280;42545;50.054;8.306;2023-01-28T08:02:17;101077.81;;;0.85;93.60
56671;BME280;42545;50.054;8.306;2023-01-28T08:04:44;101082.13;;;0.85;93.50
56671;BME280;42545;50.054;8.306;2023-01-28T08:07:15;101080.31;;;0.84;93.78
56671;BME280;42545;50.054;8.306;2023-01-28T08:09:42;101078.63;;;0.84;93.44
56671;BME280;42545;50.054;8.306;2023-01-28T08:12:10;101078.63;;;0.84;93.34
56671;BME280;42545;50.054;8.306;2023-01-28T08:14:37;101077.03;;;0.86;93.46
56671;BME280;42545;50.054;8.306;2023-01-28T08:17:04;101086.50;;;0.86;92.49
56671;BME280;42545;50.054;8.306;2023-01-28T08:19:31;101079.75;;;0.88;92.58
56671;BME280;42545;50.054;8.306;2023-01-28T08:21:58;101084.16;;;0.89;92.34
56671;BME280;42545;50.054;8.306;2023-01-28T08:24:26;101090.34;;;0.91;92.12
56671;BME280;42545;50.054;8.306;2023-01-28T08:26:53;101086.97;;;0.92;91.86
56671;BME280;42545;50.054;8.306;2023-01-28T08:29:19;101086.16;;;0.93;91.73
56671;BME280;42545;50.054;8.306;2023-01-28T08:31:46;101087.88;;;0.92;91.31
56671;BME280;42545;50.054;8.306;2023-01-28T08:34:14;101086.16;;;0.93;90.92
56671;BME280;42545;50.054;8.306;2023-01-28T08:36:41;101090.56;;;0.94;90.58
56671;BME280;42545;50.054;8.306;2023-01-28T08:39:08;101091.47;;;0.94;90.20
56671;BME280;42545;50.054;8.306;2023-01-28T08:41:37;101091.59;;;0.96;90.43
56671;BME280;42545;50.054;8.306;2023-01-28T08:44:05;101083.78;;;0.96;90.53
56671;BME280;42545;50.054;8.306;2023-01-28T08:46:31;101088.75;;;0.93;90.34
56671;BME280;42545;50.054;8.306;2023-01-28T08:48:58;101096.00;;;0.97;90.09
56671;BME280;42545;50.054;8.306;2023-01-28T08:51:24;101097.78;;;0.98;89.65
56671;BME280;42545;50.054;8.306;2023-01-28T08:53:51;101100.38;;;0.98;89.70
56671;BME280;42545;50.054;8.306;2023-01-28T08:56:18;101098.72;;;0.99;89.25
56671;BME280;42545;50.054;8.306;2023-01-28T08:58:46;101105.69;;;1.00;89.28
56671;BME280;42545;50.054;8.306;2023-01-28T09:01:13;101104.81;;;0.99;89.10
56671;BME280;42545;50.054;8.306;2023-01-28T09:03:39;101108.31;;;1.00;88.58
56671;BME280;42545;50.054;8.306;2023-01-28T09:06:06;101112.72;;;1.01;89.04
56671;BME280;42545;50.054;8.306;2023-01-28T09:08:32;101117.00;;;1.00;88.82
56671;BME280;42545;50.054;8.306;2023-01-28T09:10:59;101125.72;;;1.01;88.68
56671;BME280;42545;50.054;8.306;2023-01-28T09:13:26;101115.31;;;1.01;87.97
56671;BME280;42545;50.054;8.306;2023-01-28T09:15:56;101117.09;;;1.02;88.22
56671;BME280;42545;50.054;8.306;2023-01-28T09:18:25;101120.41;;;0.99;88.23
56671;BME280;42545;50.054;8.306;2023-01-28T09:20:51;101129.22;;;1.01;87.61
56671;BME280;42545;50.054;8.306;2023-01-28T09:23:18;101124.13;;;1.03;88.22
56671;BME280;42545;50.054;8.306;2023-01-28T09:25:45;101124.13;;;1.03;87.87
56671;BME280;42545;50.054;8.306;2023-01-28T09:28:11;101122.19;;;1.00;88.81
56671;BME280;42545;50.054;8.306;2023-01-28T09:30:38;101133.03;;;1.06;88.28
56671;BME280;42545;50.054;8.306;2023-01-28T09:33:06;101128.03;;;1.09;88.30
56671;BME280;42545;50.054;8.306;2023-01-28T09:35:33;101122.84;;;1.09;87.86
56671;BME280;42545;50.054;8.306;2023-01-28T09:38:02;101127.38;;;1.12;87.80
56671;BME280;42545;50.054;8.306;2023-01-28T09:40:33;101136.97;;;1.13;87.72
56671;BME280;42545;50.054;8.306;2023-01-28T09:43:25;101139.78;;;1.16;87.91
56671;BME280;42545;50.054;8.306;2023-01-28T09:45:58;101131.09;;;1.15;87.74
56671;BME280;42545;50.054;8.306;2023-01-28T09:48:30;101138.19;;;1.18;87.22
56671;BME280;42545;50.054;8.306;2023-01-28T09:51:02;101148.47;;;1.17;87.30
56671;BME280;42545;50.054;8.306;2023-01-28T09:53:36;101141.63;;;1.17;87.25
56671;BME280;42545;50.054;8.306;2023-01-28T09:56:11;101144.22;;;1.17;86.79
56671;BME280;42545;50.054;8.306;2023-01-28T09:58:40;101140.81;;;1.18;86.05
56671;BME280;42545;50.054;8.306;2023-01-28T10:01:31;101151.31;;;1.20;86.40
56671;BME280;42545;50.054;8.306;2023-01-28T10:04:09;101149.41;;;1.17;85.85
56671;BME280;42545;50.054;8.306;2023-01-28T10:06:44;101153.81;;;1.18;86.04
56671;BME280;42545;50.054;8.306;2023-01-28T10:09:25;101151.31;;;1.20;85.99
56671;BME280;42545;50.054;8.306;2023-01-28T10:12:28;101146.34;;;1.23;86.46
56671;BME280;42545;50.054;8.306;2023-01-28T10:15:09;101149.13;;;1.26;87.09
56671;BME280;42545;50.054;8.306;2023-01-28T10:17:44;101153.44;;;1.25;85.99
56671;BME280;42545;50.054;8.306;2023-01-28T10:20:19;101156.03;;;1.25;85.32
56671;BME280;42545;50.054;8.306;2023-01-28T10:22:53;101155.25;;;1.26;85.62
56671;BME280;42545;50.054;8.306;2023-01-28T10:25:23;101160.34;;;1.25;84.67
56671;BME280;42545;50.054;8.306;2023-01-28T10:27:51;101160.34;;;1.25;84.75
56671;BME280;42545;50.054;8.306;2023-01-28T10:30:19;101165.78;;;1.28;85.15
56671;BME280;42545;50.054;8.306;2023-01-28T10:32:51;101167.69;;;1.30;85.43
56671;BME280;42545;50.054;8.306;2023-01-28T10:35:20;101167.56;;;1.29;84.52
56671;BME280;42545;50.054;8.306;2023-01-28T10:37:47;101151.84;;;1.27;84.41
56671;BME280;42545;50.054;8.306;2023-01-28T10:40:15;101153.69;;;1.28;84.29
56671;BME280;42545;50.054;8.306;2023-01-28T10:42:43;101159.09;;;1.31;84.09
56671;BME280;42545;50.054;8.306;2023-01-28T10:45:16;101155.56;;;1.31;84.26
56671;BME280;42545;50.054;8.306;2023-01-28T10:47:47;101154.69;;;1.30;84.37
56671;BME280;42545;50.054;8.306;2023-01-28T10:50:21;101162.59;;;1.32;83.77
56671;BME280;42545;50.054;8.306;2023-01-28T10:52:53;101165.97;;;1.31;83.40
56671;BME280;42545;50.054;8.306;2023-01-28T10:55:20;101156.16;;;1.27;83.27
56671;BME280;42545;50.054;8.306;2023-01-28T10:57:48;101167.78;;;1.32;83.16
56671;BME280;42545;50.054;8.306;2023-01-28T11:00:22;101166.22;;;1.34;84.01
56671;BME280;42545;50.054;8.306;2023-01-28T11:02:51;101154.78;;;1.32;84.20
56671;BME280;42545;50.054;8.306;2023-01-28T11:05:23;101166.44;;;1.37;84.11
56671;BME280;42545;50.054;8.306;2023-01-28T11:08:02;101157.94;;;1.40;83.81
56671;BME280;42545;50.054;8.306;2023-01-28T11:10:30;101167.44;;;1.39;83.16
56671;BME280;42545;50.054;8.306;2023-01-28T11:12:59;101156.09;;;1.39;83.46
56671;BME280;42545;50.054;8.306;2023-01-28T11:15:26;101162.91;;;1.37;82.98
56671;BME280;42545;50.054;8.306;2023-01-28T11:17:56;101167.31;;;1.38;82.84
56671;BME280;42545;50.054;8.306;2023-01-28T11:20:27;101163.03;;;1.38;83.67
56671;BME280;42545;50.054;8.306;2023-01-28T11:22:55;101161.44;;;1.40;82.92
56671;BME280;42545;50.054;8.306;2023-01-28T11:25:27;101170.81;;;1.38;82.41
56671;BME280;42545;50.054;8.306;2023-01-28T11:27:57;101163.59;;;1.34;82.70
56671;BME280;42545;50.054;8.306;2023-01-28T11:30:27;101161.69;;;1.31;82.98
56671;BME280;42545;50.054;8.306;2023-01-28T11:32:55;101166.97;;;1.33;83.08
56671;BME280;42545;50.054;8.306;2023-01-28T11:35:26;101172.00;;;1.30;82.15
56671;BME280;42545;50.054;8.306;2023-01-28T11:37:56;101166.44;;;1.25;82.51
56671;BME280;42545;50.054;8.306;2023-01-28T11:40:24;101163.84;;;1.25;82.55
56671;BME280;42545;50.054;8.306;2023-01-28T11:42:53;101156.94;;;1.26;83.63
56671;BME280;42545;50.054;8.306;2023-01-28T11:45:31;101155.16;;;1.25;83.12
56671;BME280;42545;50.054;8.306;2023-01-28T11:48:14;101159.34;;;1.23;83.39
56671;BME280;42545;50.054;8.306;2023-01-28T11:50:48;101154.03;;;1.21;83.00
56671;BME280;42545;50.054;8.306;2023-01-28T11:53:35;101151.31;;;1.20;83.35
56671;BME280;42545;50.054;8.306;2023-01-28T11:56:20;101141.50;;;1.15;83.18
56671;BME280;42545;50.054;8.306;2023-01-28T11:58:55;101149.41;;;1.17;83.47
56671;BME280;42545;50.054;8.306;2023-01-28T12:01:37;101152.09;;;1.19;83.34
56671;BME280;42545;50.054;8.306;2023-01-28T12:04:18;101148.72;;;1.20;83.86
56671;BME280;42545;50.054;8.306;2023-01-28T12:06:55;101152.22;;;1.20;83.01
56671;BME280;42545;50.054;8.306;2023-01-28T12:09:32;101148.28;;;1.13;82.88
56671;BME280;42545;50.054;8.306;2023-01-28T12:12:15;101147.16;;;1.10;82.45
56671;BME280;42545;50.054;8.306;2023-01-28T12:15:01;101137.22;;;1.04;82.92
56671;BME280;42545;50.054;8.306;2023-01-28T12:17:41;101144.56;;;0.98;82.27
56671;BME280;42545;50.054;8.306;2023-01-28T12:20:13;101147.88;;;0.95;82.54
56671;BME280;42545;50.054;8.306;2023-01-28T12:23:02;101144.91;;;0.91;82.78
56671;BME280;42545;50.054;8.306;2023-01-28T12:25:38;101141.41;;;0.90;82.72
56671;BME280;42545;50.054;8.306;2023-01-28T12:28:14;101144.91;;;0.91;83.95
56671;BME280;42545;50.054;8.306;2023-01-28T12:31:00;101148.44;;;0.91;83.60
56671;BME280;42545;50.054;8.306;2023-01-28T12:33:41;101137.13;;;0.91;81.97
56671;BME280;42545;50.054;8.306;2023-01-28T12:36:23;101137.69;;;0.87;82.09
56671;BME280;42545;50.054;8.306;2023-01-28T12:39:01;101136.69;;;0.85;82.49
56671;BME280;42545;50.054;8.306;2023-01-28T12:41:32;101138.47;;;0.86;82.39
56671;BME280;42545;50.054;8.306;2023-01-28T12:44:02;101133.19;;;0.84;81.82
56671;BME280;42545;50.054;8.306;2023-01-28T12:46:37;101128.91;;;0.85;82.72
56671;BME280;42545;50.054;8.306;2023-01-28T12:49:09;101139.41;;;0.86;81.88
56671;BME280;42545;50.054;8.306;2023-01-28T12:51:46;101136.00;;;0.87;82.25
56671;BME280;42545;50.054;8.306;2023-01-28T12:54:20;101133.09;;;0.83;81.68
56671;BME280;42545;50.054;8.306;2023-01-28T12:56:52;101132.38;;;0.85;81.33
56671;BME280;42545;50.054;8.306;2023-01-28T12:59:21;101118.38;;;0.83;81.59
56671;BME280;42545;50.054;8.306;2023-01-28T13:02:01;101126.06;;;0.82;80.55
56671;BME280;42545;50.054;8.306;2023-01-28T13:04:36;101125.06;;;0.80;80.66
56671;BME280;42545;50.054;8.306;2023-01-28T13:07:07;101130.13;;;0.78;79.88
56671;BME280;42545;50.054;8.306;2023-01-28T13:09:41;101138.03;;;0.80;80.08
56671;BME280;42545;50.054;8.306;2023-01-28T13:12:10;101132.97;;;0.81;80.35
56671;BME280;42545;50.054;8.306;2023-01-28T13:14:40;101141.78;;;0.83;78.59
56671;BME280;42545;50.054;8.306;2023-01-28T13:17:08;101149.69;;;0.85;79.41